Hauptseite
METAR-TAF:

METAR-TAF

Flughäfen :

Flughafen Noumérat - Moufdi Zakaria

Ghardaia, Algerien

Breite: 32-23N, Länge: 003-49E, Höhe: 450 m

Beobachtung

Neuester Wetterbericht von vor 1 Stunde und 9 Minuten, um 10:00 UTC
Wind 12 kt aus Ost/Nordost, variierte zwischen Nord/Nordost und Ost
Temperatur 29°C
Luftfeuchtigkeit 33%
Luftdruck 1024 hPa
Sichtweite 10 km oder mehr
keine Wolken unter 1500 m und keine Kumulonimbus oder Gewitterwolken

METAR: DAUG 231000Z 07012KT 030V100 CAVOK 29/11 Q1024

Zeit: 12:09 (11:09 UTC)

Prognose

Neuester Wetterbericht von vor 6 Stunden und 9 Minuten, um 05:00 UTC
Gültige Prognose vom 23 um 06 UTC bis 24 um 06 UTC
Wind 10 kt aus Ost
Sichtweite 10 km oder mehr
keine Wolken unter 1500 m und keine Kumulonimbus oder Gewitterwolken

TAF: DAUG 230500Z 2306/2406 08010KT CAVOK

Wetterbeobachtungen und Prognosen von mehr als 4000 Flughäfen (METAR und TAF Bericht).

Die verfügbaren Stationen werden durch gelbe und rote Markierungen auf der Karte dargestellt.

Führen Sie die Maus auf sie, um den Namen der Station zu sehen.

Darauf klicken, um die Beobachtung von Wetterbeobachtungen und Prognosen zu sehen.

Um die Karte zu ändern : klicken Sie auf den grünen Tasten mit einem schwarzen Kreuz Zum Vergrößern, auf den grünen Button mit einem Gedankenstrich zu verkleinern, oder auf die grünen Pfeile für benachbarte Karten.


METAR-TAF: